Terminal Aerodrome Forecast
Issued by NWS

Home | Current Version | Previous Version | Graphics & Text | Print | Product List | Glossary On
Versions: 1 2 3 4 5 6 7 8 9 10 11 12 13 14 15 16 17 18 19
000
FTUS43 KABR 251700
TAFPIR
TAF
KPIR 251720Z 2518/2618 03018KT 2SM -SN BR OVC025
      TEMPO 2518/2521 4SM -SN FEW025 BKN035 OVC050
     FM252100 01018G26KT 4SM -SN SCT025 BKN040 OVC060
     FM260000 35015G23KT P6SM OVC035
     FM260700 34010KT P6SM SCT050 SCT120=

USA.gov is the U.S. government's official web portal to all federal, state and local government web resources and services.